In Rescue
 
Open Full Screen Window  High Contrast Mode
Wind Gusting 14 knots
09
April 20, 2024 8:43 AM CDT
Weather Information
Wind Direction
  310 °
Wind Speed
  09 kt (10 mph)
Wind Gust
  14 kt (16 mph)
Altimeter
30.29 in
Visibility
10 SM
Temperature
-01° C
30° F
Dewpoint
-05° C
23° F
Humidity
74%
Sky Condition
Overcast @ 2,200 ft
MVFR

METAR K14Y 201343Z AUTO 31009G14KT 10SM OVC022 M01/M05 A3029 RMK AO2

FAA Disclaimer: The data displayed is for advisory purposes only and is not to be used for flight planning or operations.